Time;durP1;ratioP1;P1;durP2;ratioP2;P2;SDS_P1;SDS_P2;PMS_P1;PMS_P2;Temp;Humidity;BMP_temperature;BMP_pressure;BME280_temperature;BME280_humidity;BME280_pressure;Samples;Min_cycle;Max_cycle;Signal;HPM_P1;HPM_P2
2022/01/20 00:00:14;;;;;;;19.52;3.45;;;;;;;;;;5051022;28;20163;-65
2022/01/20 00:02:41;;;;;;;21.77;3.65;;;;;;;;;;5049129;28;20151;-65
2022/01/20 00:05:27;;;;;;;16.70;2.72;;;;;;;;;;5033478;28;20056;-65
2022/01/20 00:08:15;;;;;;;20.73;3.38;;;;;;;;;;5036411;28;20053;-65
2022/01/20 00:27:13;;;;;;;16.75;2.20;;;;;;;;;;5046232;28;20129;-65
2022/01/20 00:32:48;;;;;;;8.57;2.28;;;;;;;;;;5045614;28;20039;-64
2022/01/20 00:35:28;;;;;;;9.98;1.55;;;;;;;;;;5041485;28;20046;-64
2022/01/20 00:37:54;;;;;;;9.43;2.00;;;;;;;;;;5034452;28;20246;-65
2022/01/20 00:40:20;;;;;;;9.52;1.65;;;;;;;;;;5032891;28;20045;-65
2022/01/20 00:42:46;;;;;;;11.88;1.77;;;;;;;;;;5037223;28;20449;-65
2022/01/20 00:45:12;;;;;;;14.10;1.80;;;;;;;;;;5047993;28;20040;-65
2022/01/20 00:47:38;;;;;;;14.00;1.92;;;;;;;;;;5041722;28;20041;-64
2022/01/20 00:50:06;;;;;;;8.75;1.70;;;;;;;;;;5037629;28;20045;-65
2022/01/20 00:52:32;;;;;;;6.88;1.35;;;;;;;;;;5039276;28;20121;-65
2022/01/20 00:54:58;;;;;;;14.05;1.90;;;;;;;;;;5048734;28;20087;-65
2022/01/20 00:57:24;;;;;;;11.00;2.08;;;;;;;;;;5051805;28;20033;-64
2022/01/20 00:59:50;;;;;;;12.68;1.85;;;;;;;;;;5036555;28;20041;-64
2022/01/20 01:02:16;;;;;;;9.93;1.88;;;;;;;;;;5043775;28;20044;-65
2022/01/20 01:04:42;;;;;;;13.13;2.05;;;;;;;;;;5045872;28;20037;-65
2022/01/20 01:09:39;;;;;;;16.40;2.03;;;;;;;;;;5046331;28;20049;-65
2022/01/20 01:12:08;;;;;;;12.80;2.25;;;;;;;;;;5049898;28;20514;-65
2022/01/20 01:14:35;;;;;;;12.15;2.00;;;;;;;;;;5040222;28;20120;-65
2022/01/20 01:22:21;;;;;;;13.20;1.75;;;;;;;;;;5070432;28;20044;-77
2022/01/20 01:24:47;;;;;;;10.70;1.67;;;;;;;;;;5070838;28;20101;-77
2022/01/20 01:27:14;;;;;;;15.52;2.42;;;;;;;;;;5071518;28;20079;-77
2022/01/20 01:30:05;;;;;;;13.52;1.65;;;;;;;;;;5071472;28;20036;-76
2022/01/20 01:32:54;;;;;;;;;;;;;;;;;;5040563;28;20041;-77
2022/01/20 01:35:20;;;;;;;10.93;2.25;;;;;;;;;;5043740;28;19927;-77
2022/01/20 01:40:15;;;;;;;13.98;2.45;;;;;;;;;;5051254;28;21499;-77
2022/01/20 01:42:45;;;;;;;15.32;2.13;;;;;;;;;;5044465;28;20196;-77
2022/01/20 01:45:14;;;;;;;18.20;2.70;;;;;;;;;;5046765;28;20041;-77
2022/01/20 01:47:40;;;;;;;12.13;1.92;;;;;;;;;;5048569;28;20557;-77
2022/01/20 01:50:07;;;;;;;14.20;1.88;;;;;;;;;;5051452;28;20049;-77
2022/01/20 01:52:33;;;;;;;13.68;2.42;;;;;;;;;;5051117;28;20137;-77
2022/01/20 01:54:59;;;;;;;13.18;1.67;;;;;;;;;;5048789;28;20462;-77
2022/01/20 01:57:26;;;;;;;12.95;1.60;;;;;;;;;;5046234;28;20095;-77
2022/01/20 01:59:53;;;;;;;11.32;1.65;;;;;;;;;;5051509;28;20041;-77
2022/01/20 02:02:19;;;;;;;14.82;2.30;;;;;;;;;;5050751;28;20069;-76
2022/01/20 02:04:45;;;;;;;10.10;1.50;;;;;;;;;;5050025;28;20079;-75
2022/01/20 02:08:21;;;;;;;10.82;1.63;;;;;;;;;;5048613;28;20495;-75
2022/01/20 02:20:40;;;;;;;10.20;1.50;;;;;;;;;;5035769;28;20049;-77
2022/01/20 02:23:06;;;;;;;5.53;1.20;;;;;;;;;;5051258;28;20064;-77
2022/01/20 02:25:34;;;;;;;12.93;1.50;;;;;;;;;;5045018;28;20045;-77
2022/01/20 02:28:01;;;;;;;10.27;1.40;;;;;;;;;;5055286;28;20051;-77
2022/01/20 02:30:28;;;;;;;6.63;1.33;;;;;;;;;;5054527;28;20498;-77
2022/01/20 02:32:55;;;;;;;10.55;1.67;;;;;;;;;;5054727;28;20112;-77
2022/01/20 02:35:22;;;;;;;12.57;2.17;;;;;;;;;;5052438;28;20041;-77
2022/01/20 02:37:52;;;;;;;9.18;1.40;;;;;;;;;;5055219;28;20048;-77
2022/01/20 02:45:48;;;;;;;5.65;1.00;;;;;;;;;;5041977;28;20099;-77
2022/01/20 02:48:14;;;;;;;10.00;1.40;;;;;;;;;;5054590;28;20044;-74
2022/01/20 02:50:40;;;;;;;9.52;1.40;;;;;;;;;;5036802;28;20092;-73
2022/01/20 02:53:06;;;;;;;9.68;1.65;;;;;;;;;;5037144;28;20430;-73
2022/01/20 02:55:32;;;;;;;10.40;1.45;;;;;;;;;;5050250;28;20036;-73
2022/01/20 02:57:58;;;;;;;5.88;1.30;;;;;;;;;;5053173;28;20548;-73
2022/01/20 03:00:24;;;;;;;5.43;1.38;;;;;;;;;;5052870;28;20040;-74
2022/01/20 03:02:50;;;;;;;4.15;1.20;;;;;;;;;;5056695;28;20401;-73
2022/01/20 03:05:16;;;;;;;7.35;1.33;;;;;;;;;;5059814;28;20091;-74
2022/01/20 03:07:42;;;;;;;7.07;1.65;;;;;;;;;;5053803;28;20044;-73
2022/01/20 03:10:09;;;;;;;5.93;0.90;;;;;;;;;;5054462;28;20045;-73
2022/01/20 03:12:35;;;;;;;7.22;1.50;;;;;;;;;;5053721;28;20095;-73
2022/01/20 03:15:01;;;;;;;12.02;1.60;;;;;;;;;;5052895;28;20114;-73
2022/01/20 03:17:28;;;;;;;11.48;1.60;;;;;;;;;;5054056;28;20071;-74
2022/01/20 03:19:54;;;;;;;12.93;2.10;;;;;;;;;;5053912;28;20045;-73
2022/01/20 03:22:20;;;;;;;13.63;2.05;;;;;;;;;;5054166;28;20110;-75
2022/01/20 03:24:46;;;;;;;10.65;1.73;;;;;;;;;;5052715;28;20048;-75
2022/01/20 03:27:12;;;;;;;12.32;1.90;;;;;;;;;;5050948;28;20045;-76
2022/01/20 03:29:38;;;;;;;10.70;1.98;;;;;;;;;;5053833;28;20041;-74
2022/01/20 03:32:04;;;;;;;11.95;2.42;;;;;;;;;;5053887;28;20040;-75
2022/01/20 03:34:30;;;;;;;14.80;2.20;;;;;;;;;;5053101;28;20041;-76
2022/01/20 03:36:56;;;;;;;14.15;2.63;;;;;;;;;;5048840;28;20039;-76
2022/01/20 03:39:22;;;;;;;14.25;2.40;;;;;;;;;;5034060;28;20037;-76
2022/01/20 03:41:48;;;;;;;11.85;2.13;;;;;;;;;;5053540;28;20086;-76
2022/01/20 03:44:16;;;;;;;14.10;2.28;;;;;;;;;;5052789;28;20124;-76
2022/01/20 03:46:42;;;;;;;14.90;2.42;;;;;;;;;;5047259;28;20041;-76
2022/01/20 03:49:26;;;;;;;17.85;3.13;;;;;;;;;;5053830;28;20044;-76
2022/01/20 03:51:52;;;;;;;16.88;2.53;;;;;;;;;;5053172;28;20049;-76
2022/01/20 03:54:18;;;;;;;18.08;2.88;;;;;;;;;;5051896;28;20059;-76
2022/01/20 03:56:43;;;;;;;14.88;2.42;;;;;;;;;;5045848;28;20041;-76
2022/01/20 03:59:09;;;;;;;18.05;2.67;;;;;;;;;;5053661;28;20041;-76
2022/01/20 04:01:35;;;;;;;20.60;3.20;;;;;;;;;;5053678;28;20043;-77
2022/01/20 04:04:01;;;;;;;17.08;3.00;;;;;;;;;;5053370;28;20033;-77
2022/01/20 04:06:28;;;;;;;12.48;2.58;;;;;;;;;;5044890;28;20039;-76
2022/01/20 04:08:54;;;;;;;16.33;2.95;;;;;;;;;;5052872;28;20052;-76
2022/01/20 04:11:22;;;;;;;19.05;2.90;;;;;;;;;;5053532;28;20120;-77
2022/01/20 04:13:48;;;;;;;13.43;3.10;;;;;;;;;;5053317;28;20068;-76
2022/01/20 04:16:17;;;;;;;15.85;2.78;;;;;;;;;;5051291;28;20053;-76
2022/01/20 04:18:56;;;;;;;21.40;3.38;;;;;;;;;;5053028;28;20040;-76
2022/01/20 04:21:29;;;;;;;19.10;3.30;;;;;;;;;;5052912;28;20052;-76
2022/01/20 04:23:56;;;;;;;17.40;2.65;;;;;;;;;;5052916;28;20063;-76
2022/01/20 04:26:23;;;;;;;16.13;3.53;;;;;;;;;;5050241;28;20398;-77
2022/01/20 04:28:53;;;;;;;16.85;2.85;;;;;;;;;;5050170;28;20535;-77
2022/01/20 04:31:20;;;;;;;15.90;2.47;;;;;;;;;;5049505;28;20565;-76
2022/01/20 04:33:46;;;;;;;15.18;2.95;;;;;;;;;;5052415;28;20045;-76
2022/01/20 04:36:12;;;;;;;15.38;2.72;;;;;;;;;;5047294;28;20033;-76
2022/01/20 04:38:38;;;;;;;19.65;2.85;;;;;;;;;;5063847;28;20053;-76
2022/01/20 04:41:04;;;;;;;21.67;3.00;;;;;;;;;;5051807;28;20445;-76
2022/01/20 04:43:30;;;;;;;12.68;2.67;;;;;;;;;;5052151;28;20033;-76
2022/01/20 04:46:08;;;;;;;14.07;2.30;;;;;;;;;;5050167;28;20041;-76
2022/01/20 04:59:23;;;;;;;14.27;2.38;;;;;;;;;;5050810;28;20048;-72
2022/01/20 05:01:49;;;;;;;15.55;2.97;;;;;;;;;;5043867;28;20399;-72
2022/01/20 05:04:15;;;;;;;19.73;2.60;;;;;;;;;;5048430;28;20037;-72
2022/01/20 05:06:43;;;;;;;13.13;2.28;;;;;;;;;;5041152;28;20069;-72
2022/01/20 05:09:11;;;;;;;12.00;2.65;;;;;;;;;;5052526;28;20342;-72
2022/01/20 05:11:42;;;;;;;11.45;2.10;;;;;;;;;;5051378;28;20080;-73
2022/01/20 05:14:08;;;;;;;14.88;2.47;;;;;;;;;;5051485;28;20525;-72
2022/01/20 05:16:34;;;;;;;17.08;2.35;;;;;;;;;;5043290;28;20094;-72
2022/01/20 05:19:00;;;;;;;10.32;2.20;;;;;;;;;;5033695;28;20111;-72
2022/01/20 05:21:26;;;;;;;14.25;2.35;;;;;;;;;;5051515;28;20509;-72
2022/01/20 05:23:52;;;;;;;10.63;2.60;;;;;;;;;;5050914;28;20055;-71
2022/01/20 05:26:18;;;;;;;11.90;2.60;;;;;;;;;;5048098;28;20049;-72
2022/01/20 05:28:44;;;;;;;13.02;2.30;;;;;;;;;;5052004;28;20094;-72
2022/01/20 05:31:10;;;;;;;16.65;2.67;;;;;;;;;;5051491;28;20127;-72
2022/01/20 05:33:36;;;;;;;11.50;2.20;;;;;;;;;;5050915;28;20064;-72
2022/01/20 05:36:02;;;;;;;22.73;3.00;;;;;;;;;;5043251;28;20025;-72
2022/01/20 05:38:28;;;;;;;17.80;3.08;;;;;;;;;;5050369;28;20337;-72
2022/01/20 05:40:54;;;;;;;13.90;2.63;;;;;;;;;;5051182;28;20449;-72
2022/01/20 05:43:20;;;;;;;11.63;2.60;;;;;;;;;;5051278;28;20062;-72
2022/01/20 05:45:46;;;;;;;16.67;2.53;;;;;;;;;;5046711;28;20071;-72
2022/01/20 05:48:15;;;;;;;17.95;2.53;;;;;;;;;;5051368;28;20389;-72
2022/01/20 05:50:42;;;;;;;16.40;2.97;;;;;;;;;;5051376;28;20041;-72
2022/01/20 05:53:08;;;;;;;11.98;2.33;;;;;;;;;;5050897;28;20044;-72
2022/01/20 05:55:34;;;;;;;8.65;2.10;;;;;;;;;;5049056;28;20437;-72
2022/01/20 05:58:01;;;;;;;14.10;2.10;;;;;;;;;;5050756;28;20040;-72
2022/01/20 06:00:27;;;;;;;14.20;1.95;;;;;;;;;;5050543;28;20076;-73
2022/01/20 06:05:39;;;;;;;11.30;1.60;;;;;;;;;;5042046;28;20461;-72
2022/01/20 06:08:05;;;;;;;12.40;1.77;;;;;;;;;;5050693;28;20047;-72
2022/01/20 06:10:31;;;;;;;8.98;1.95;;;;;;;;;;5050459;28;20060;-72
2022/01/20 06:12:57;;;;;;;9.40;1.70;;;;;;;;;;5051105;28;20075;-72
2022/01/20 06:15:23;;;;;;;10.20;1.75;;;;;;;;;;5044062;28;20029;-72
2022/01/20 06:17:49;;;;;;;13.93;2.00;;;;;;;;;;5049834;28;20052;-72
2022/01/20 06:20:15;;;;;;;9.10;1.88;;;;;;;;;;5050858;28;20051;-73
2022/01/20 06:22:42;;;;;;;11.35;1.77;;;;;;;;;;5051093;28;20120;-72
2022/01/20 06:25:08;;;;;;;12.23;2.20;;;;;;;;;;5049131;28;20037;-72
2022/01/20 06:27:34;;;;;;;11.00;2.25;;;;;;;;;;5050833;28;20087;-72
2022/01/20 06:30:00;;;;;;;12.77;1.95;;;;;;;;;;5049945;28;20037;-72
2022/01/20 06:32:27;;;;;;;10.27;2.00;;;;;;;;;;5049709;28;20033;-72
2022/01/20 06:34:53;;;;;;;10.25;1.52;;;;;;;;;;5048332;28;20401;-72
2022/01/20 06:37:18;;;;;;;13.07;1.88;;;;;;;;;;5047530;28;20028;-72
2022/01/20 06:39:45;;;;;;;9.60;1.95;;;;;;;;;;5049345;28;20067;-72
2022/01/20 06:42:11;;;;;;;11.77;1.85;;;;;;;;;;5050369;28;20486;-73
2022/01/20 06:44:37;;;;;;;11.52;1.85;;;;;;;;;;5048928;28;20063;-73
2022/01/20 06:47:03;;;;;;;14.23;2.15;;;;;;;;;;5030135;28;20037;-72
2022/01/20 06:49:29;;;;;;;11.63;1.90;;;;;;;;;;5049568;28;20037;-72
2022/01/20 06:51:55;;;;;;;12.25;2.22;;;;;;;;;;5050274;28;20040;-73
2022/01/20 06:54:21;;;;;;;16.98;2.70;;;;;;;;;;5048638;28;20432;-73
2022/01/20 06:56:48;;;;;;;10.65;2.10;;;;;;;;;;5049626;28;20043;-72
2022/01/20 06:59:17;;;;;;;12.18;1.95;;;;;;;;;;5050417;28;20065;-73
2022/01/20 07:01:43;;;;;;;13.82;2.47;;;;;;;;;;5048104;28;20049;-73
2022/01/20 07:04:10;;;;;;;13.10;2.30;;;;;;;;;;5049353;28;20051;-73
2022/01/20 07:06:36;;;;;;;12.27;2.47;;;;;;;;;;5044595;28;20045;-74
2022/01/20 07:09:02;;;;;;;13.65;2.20;;;;;;;;;;5050049;28;20033;-74
2022/01/20 07:11:28;;;;;;;14.95;2.25;;;;;;;;;;5042060;28;20461;-73
2022/01/20 07:13:54;;;;;;;15.85;2.10;;;;;;;;;;5057136;28;20082;-74
2022/01/20 07:16:20;;;;;;;10.63;2.40;;;;;;;;;;5057948;28;20409;-73
2022/01/20 07:18:46;;;;;;;13.90;2.20;;;;;;;;;;5061107;28;20062;-73
2022/01/20 07:21:12;;;;;;;14.50;3.47;;;;;;;;;;5041870;22;20496;-68
2022/01/20 07:23:38;;;;;;;12.68;2.53;;;;;;;;;;4990277;28;20043;-68
2022/01/20 07:26:04;;;;;;;16.05;2.33;;;;;;;;;;4998616;28;20119;-68
2022/01/20 07:28:30;;;;;;;15.98;2.55;;;;;;;;;;4990311;28;20515;-68
2022/01/20 07:30:56;;;;;;;15.15;2.05;;;;;;;;;;4996172;28;20042;-68
2022/01/20 07:33:22;;;;;;;13.98;3.13;;;;;;;;;;4998745;28;20038;-68
2022/01/20 07:35:48;;;;;;;15.60;2.60;;;;;;;;;;5004761;28;20094;-68
2022/01/20 07:38:14;;;;;;;12.05;2.90;;;;;;;;;;4997101;28;20038;-68
2022/01/20 07:40:40;;;;;;;16.27;2.42;;;;;;;;;;5002168;28;20511;-68
2022/01/20 07:43:06;;;;;;;20.20;2.65;;;;;;;;;;5002642;28;20038;-68
2022/01/20 07:45:32;;;;;;;20.02;2.75;;;;;;;;;;5003370;28;20060;-68
2022/01/20 07:47:58;;;;;;;15.85;2.38;;;;;;;;;;5009374;28;20381;-67
2022/01/20 07:50:24;;;;;;;14.70;2.55;;;;;;;;;;4999847;28;20053;-68
2022/01/20 07:52:50;;;;;;;11.18;2.05;;;;;;;;;;5006139;28;20052;-68
2022/01/20 07:55:16;;;;;;;11.57;2.00;;;;;;;;;;4995744;28;20434;-68
2022/01/20 07:57:42;;;;;;;10.52;2.28;;;;;;;;;;5003460;28;20084;-68
2022/01/20 08:00:09;;;;;;;14.90;2.50;;;;;;;;;;5006107;28;20049;-68
2022/01/20 08:02:35;;;;;;;15.75;2.97;;;;;;;;;;4996748;28;20052;-67
2022/01/20 08:05:01;;;;;;;17.00;2.97;;;;;;;;;;5010061;28;20045;-67
2022/01/20 08:07:27;;;;;;;14.65;2.65;;;;;;;;;;5003166;28;20071;-67
2022/01/20 08:09:59;;;;;;;11.60;2.70;;;;;;;;;;4999892;28;20046;-67
2022/01/20 08:12:28;;;;;;;11.27;2.05;;;;;;;;;;5006822;28;20480;-67
2022/01/20 08:14:55;;;;;;;11.82;2.90;;;;;;;;;;5002397;28;20074;-67
2022/01/20 08:17:21;;;;;;;15.35;2.70;;;;;;;;;;5004646;28;20117;-67
2022/01/20 08:19:47;;;;;;;14.65;2.80;;;;;;;;;;4993276;28;20183;-67
2022/01/20 08:22:13;;;;;;;14.77;2.35;;;;;;;;;;4991871;28;20542;-67
2022/01/20 08:24:41;;;;;;;15.77;2.92;;;;;;;;;;5002698;28;20038;-67
2022/01/20 08:27:07;;;;;;;15.75;3.08;;;;;;;;;;5010043;28;20055;-68
2022/01/20 08:29:33;;;;;;;10.23;2.92;;;;;;;;;;5000239;28;20034;-68
2022/01/20 08:31:59;;;;;;;14.45;3.45;;;;;;;;;;5007421;28;20049;-67
2022/01/20 08:34:25;;;;;;;18.02;2.25;;;;;;;;;;5003055;28;20513;-67
2022/01/20 08:36:55;;;;;;;13.25;2.63;;;;;;;;;;5000446;28;20042;-67
2022/01/20 08:39:43;;;;;;;15.27;2.88;;;;;;;;;;5011808;28;20042;-67
2022/01/20 08:42:08;;;;;;;14.15;2.42;;;;;;;;;;5004962;28;20046;-67
2022/01/20 08:44:34;;;;;;;12.02;2.47;;;;;;;;;;5004743;28;20038;-67
2022/01/20 08:47:02;;;;;;;14.55;3.47;;;;;;;;;;5006433;28;20034;-68
2022/01/20 08:49:28;;;;;;;13.02;3.30;;;;;;;;;;5000992;28;20216;-67
2022/01/20 08:51:54;;;;;;;11.00;2.33;;;;;;;;;;4997461;28;20531;-67
2022/01/20 08:54:21;;;;;;;16.90;2.75;;;;;;;;;;5005186;28;20113;-67
2022/01/20 08:56:47;;;;;;;16.05;3.03;;;;;;;;;;5005256;28;20026;-67
2022/01/20 08:59:13;;;;;;;13.82;2.80;;;;;;;;;;5009528;28;20410;-67
2022/01/20 09:01:40;;;;;;;14.82;2.42;;;;;;;;;;4998139;28;20046;-69
2022/01/20 09:04:07;;;;;;;15.63;2.58;;;;;;;;;;4997611;28;20034;-68
2022/01/20 09:06:33;;;;;;;13.63;2.63;;;;;;;;;;5001058;28;20077;-68
2022/01/20 09:08:59;;;;;;;14.75;2.60;;;;;;;;;;5001992;28;20038;-70
2022/01/20 09:11:31;;;;;;;15.52;2.47;;;;;;;;;;4998163;28;20095;-69
2022/01/20 09:16:42;;;;;;;14.98;2.38;;;;;;;;;;5004790;28;20040;-69
2022/01/20 09:19:08;;;;;;;14.85;3.13;;;;;;;;;;5008480;28;20038;-68
2022/01/20 09:21:35;;;;;;;11.63;2.30;;;;;;;;;;4999512;28;20057;-70
2022/01/20 09:24:01;;;;;;;13.73;2.30;;;;;;;;;;4999098;28;20057;-69
2022/01/20 09:26:27;;;;;;;12.05;2.33;;;;;;;;;;5003856;28;20034;-69
2022/01/20 09:28:53;;;;;;;11.15;2.30;;;;;;;;;;5002946;28;20045;-68
2022/01/20 09:31:24;;;;;;;14.38;2.65;;;;;;;;;;5004917;28;20030;-68
2022/01/20 09:33:50;;;;;;;;;;;;;;;;;;5000588;28;20453;-69
2022/01/20 09:36:16;;;;;;;13.73;2.42;;;;;;;;;;5003091;28;19918;-69
2022/01/20 09:38:43;;;;;;;11.63;2.30;;;;;;;;;;4997652;28;20042;-69
2022/01/20 09:41:09;;;;;;;8.45;1.95;;;;;;;;;;4998783;28;20179;-69
2022/01/20 09:43:35;;;;;;;6.15;1.95;;;;;;;;;;5006637;28;20071;-68
2022/01/20 09:46:01;;;;;;;12.10;2.25;;;;;;;;;;5000321;28;20053;-68
2022/01/20 09:48:28;;;;;;;9.93;2.30;;;;;;;;;;5084928;28;20034;-68
2022/01/20 09:50:55;;;;;;;11.73;2.08;;;;;;;;;;4992219;28;20038;-68
2022/01/20 09:53:21;;;;;;;11.93;2.42;;;;;;;;;;5009297;28;20042;-69
2022/01/20 09:55:47;;;;;;;15.10;2.45;;;;;;;;;;5007570;28;20077;-69
2022/01/20 09:58:13;;;;;;;7.38;1.80;;;;;;;;;;4998988;28;20073;-68
2022/01/20 10:00:40;;;;;;;8.20;1.10;;;;;;;;;;4999331;28;20080;-69
2022/01/20 10:03:09;;;;;;;14.38;2.20;;;;;;;;;;5004344;28;20480;-69
2022/01/20 10:05:38;;;;;;;5.40;1.30;;;;;;;;;;5000895;28;20056;-68
2022/01/20 10:08:07;;;;;;;7.13;1.42;;;;;;;;;;5006934;28;20501;-69
2022/01/20 10:10:57;;;;;;;7.95;1.40;;;;;;;;;;5000060;28;20037;-68
2022/01/20 10:13:27;;;;;;;6.05;1.23;;;;;;;;;;4999805;28;20494;-68
2022/01/20 10:15:59;;;;;;;6.45;1.40;;;;;;;;;;5004715;28;20551;-67
2022/01/20 10:18:25;;;;;;;5.97;1.17;;;;;;;;;;5007280;28;20052;-68
2022/01/20 10:20:57;;;;;;;11.23;1.58;;;;;;;;;;5003808;28;20121;-68
2022/01/20 10:23:30;;;;;;;5.05;1.50;;;;;;;;;;4997282;28;20046;-67
2022/01/20 10:26:22;;;;;;;6.43;1.48;;;;;;;;;;5003611;28;20522;-68
2022/01/20 10:29:00;;;;;;;5.35;1.42;;;;;;;;;;4996276;28;20050;-68
2022/01/20 10:31:45;;;;;;;7.25;1.55;;;;;;;;;;4995286;28;20053;-67
2022/01/20 10:34:19;;;;;;;9.75;1.63;;;;;;;;;;4996228;28;20042;-68
2022/01/20 10:36:51;;;;;;;8.48;1.58;;;;;;;;;;4998849;28;20042;-68
2022/01/20 10:39:17;;;;;;;10.60;2.22;;;;;;;;;;4992489;28;20407;-68
2022/01/20 10:41:43;;;;;;;9.85;2.05;;;;;;;;;;5002808;28;20091;-68
2022/01/20 10:44:10;;;;;;;10.70;1.80;;;;;;;;;;5004080;28;20069;-69
2022/01/20 10:46:43;;;;;;;10.45;2.50;;;;;;;;;;5005068;28;20137;-67
2022/01/20 10:49:09;;;;;;;9.95;1.85;;;;;;;;;;5004250;28;20065;-67
2022/01/20 10:51:36;;;;;;;12.38;1.60;;;;;;;;;;4999235;28;20051;-68
2022/01/20 10:54:11;;;;;;;6.80;1.67;;;;;;;;;;4999406;28;20039;-67
2022/01/20 10:56:54;;;;;;;9.88;1.95;;;;;;;;;;5007578;28;20038;-67
2022/01/20 10:59:20;;;;;;;8.48;1.60;;;;;;;;;;5001884;28;20042;-68
2022/01/20 11:02:04;;;;;;;11.27;2.22;;;;;;;;;;5008079;28;20095;-68
2022/01/20 11:04:30;;;;;;;9.00;1.92;;;;;;;;;;5008200;28;20034;-70
2022/01/20 11:07:01;;;;;;;9.45;1.55;;;;;;;;;;5001726;28;20038;-68
2022/01/20 11:09:28;;;;;;;4.93;1.77;;;;;;;;;;5002212;28;20112;-68
2022/01/20 11:11:56;;;;;;;8.57;1.88;;;;;;;;;;4997228;28;20051;-68
2022/01/20 11:14:22;;;;;;;8.45;1.67;;;;;;;;;;4994657;28;20054;-69
2022/01/20 11:16:48;;;;;;;7.70;1.90;;;;;;;;;;5010141;28;20042;-68
2022/01/20 11:19:18;;;;;;;7.15;2.10;;;;;;;;;;5010437;28;20121;-68
2022/01/20 11:21:45;;;;;;;8.32;2.45;;;;;;;;;;5004930;28;20051;-68
2022/01/20 11:24:23;;;;;;;8.15;1.95;;;;;;;;;;5011122;28;20052;-68
2022/01/20 11:26:54;;;;;;;11.27;2.05;;;;;;;;;;5006067;28;20072;-68
2022/01/20 11:29:20;;;;;;;11.30;2.13;;;;;;;;;;5004901;28;20038;-68
2022/01/20 11:31:47;;;;;;;10.95;2.05;;;;;;;;;;4998779;28;20057;-68
2022/01/20 11:34:17;;;;;;;10.57;2.00;;;;;;;;;;5009088;28;20036;-68
2022/01/20 11:36:43;;;;;;;13.23;2.90;;;;;;;;;;5006285;28;20030;-68
2022/01/20 11:39:09;;;;;;;7.60;2.17;;;;;;;;;;5008488;28;20034;-68
2022/01/20 11:41:39;;;;;;;14.98;2.50;;;;;;;;;;5004618;28;20048;-68
2022/01/20 11:44:12;;;;;;;14.93;2.00;;;;;;;;;;5003931;28;20503;-68
2022/01/20 11:46:40;;;;;;;18.90;2.85;;;;;;;;;;5015179;28;20046;-69
2022/01/20 11:49:08;;;;;;;13.80;2.00;;;;;;;;;;5003408;28;20040;-68
2022/01/20 11:51:45;;;;;;;13.23;2.17;;;;;;;;;;5004494;28;20046;-69
2022/01/20 11:54:12;;;;;;;17.13;3.25;;;;;;;;;;4998466;28;20038;-67
2022/01/20 11:56:39;;;;;;;10.88;2.20;;;;;;;;;;5010135;28;20042;-67
2022/01/20 11:59:07;;;;;;;11.55;1.95;;;;;;;;;;5009990;28;20045;-67
2022/01/20 12:01:51;;;;;;;9.63;2.33;;;;;;;;;;5003053;28;20034;-67
2022/01/20 12:04:18;;;;;;;21.70;4.15;;;;;;;;;;5007101;28;20049;-67
2022/01/20 12:06:47;;;;;;;8.70;1.92;;;;;;;;;;5008759;28;20050;-67
2022/01/20 12:09:14;;;;;;;16.33;2.53;;;;;;;;;;5010833;28;20521;-67
2022/01/20 12:11:45;;;;;;;14.05;2.15;;;;;;;;;;5009888;28;20168;-67
2022/01/20 12:14:11;;;;;;;12.50;2.70;;;;;;;;;;5009512;28;20057;-67
2022/01/20 12:16:37;;;;;;;12.35;2.28;;;;;;;;;;5007674;28;20042;-67
2022/01/20 12:19:05;;;;;;;10.50;2.50;;;;;;;;;;5008156;28;20091;-67
2022/01/20 12:21:31;;;;;;;13.02;2.08;;;;;;;;;;5006409;28;20042;-68
2022/01/20 12:23:58;;;;;;;14.50;2.47;;;;;;;;;;5001127;28;20627;-68
2022/01/20 12:26:24;;;;;;;9.07;2.47;;;;;;;;;;5007541;28;20033;-67
2022/01/20 12:29:07;;;;;;;10.73;2.42;;;;;;;;;;5010469;28;20523;-67
2022/01/20 12:31:44;;;;;;;10.07;2.20;;;;;;;;;;5007171;28;20091;-67
2022/01/20 12:34:14;;;;;;;12.43;2.40;;;;;;;;;;5010411;28;20137;-67
2022/01/20 12:36:40;;;;;;;8.43;1.52;;;;;;;;;;4999189;28;20544;-67
2022/01/20 12:39:06;;;;;;;14.98;1.92;;;;;;;;;;4993480;28;20511;-67
2022/01/20 12:41:32;;;;;;;15.55;2.13;;;;;;;;;;5007049;28;20073;-68
2022/01/20 12:44:12;;;;;;;10.13;1.55;;;;;;;;;;5003983;28;20046;-67
2022/01/20 12:46:41;;;;;;;12.32;2.10;;;;;;;;;;5009135;28;20053;-67
2022/01/20 12:49:09;;;;;;;10.45;1.98;;;;;;;;;;5009444;28;20049;-67
2022/01/20 12:51:53;;;;;;;15.40;2.55;;;;;;;;;;5009618;28;20049;-67
2022/01/20 12:54:26;;;;;;;8.57;1.90;;;;;;;;;;5008204;28;20049;-68
2022/01/20 12:56:53;;;;;;;10.20;1.85;;;;;;;;;;5007470;28;20042;-67
2022/01/20 12:59:25;;;;;;;15.10;2.78;;;;;;;;;;5000049;28;20045;-67
2022/01/20 13:01:52;;;;;;;13.20;2.13;;;;;;;;;;5008242;28;20094;-68
2022/01/20 13:04:20;;;;;;;13.13;2.60;;;;;;;;;;5008538;28;20047;-68
2022/01/20 13:06:53;;;;;;;10.85;2.17;;;;;;;;;;5024439;28;20070;-67
2022/01/20 13:09:21;;;;;;;14.25;2.33;;;;;;;;;;5006929;28;20057;-67
2022/01/20 13:11:55;;;;;;;11.45;2.30;;;;;;;;;;5008033;28;20094;-67
2022/01/20 13:14:32;;;;;;;15.48;2.72;;;;;;;;;;5002798;28;20060;-67
2022/01/20 13:16:58;;;;;;;8.70;1.95;;;;;;;;;;5023441;28;20062;-67
2022/01/20 13:19:39;;;;;;;10.68;2.47;;;;;;;;;;5007755;28;20037;-67
2022/01/20 13:22:07;;;;;;;10.70;2.53;;;;;;;;;;5068437;22;20032;-77
2022/01/20 13:24:34;;;;;;;11.13;1.98;;;;;;;;;;5089645;28;20040;-77
2022/01/20 13:27:01;;;;;;;11.68;2.20;;;;;;;;;;5083706;28;20517;-77
2022/01/20 13:29:38;;;;;;;12.40;2.15;;;;;;;;;;5092330;28;20485;-77
2022/01/20 13:32:04;;;;;;;10.20;2.50;;;;;;;;;;5078330;28;20048;-77
2022/01/20 13:34:30;;;;;;;12.05;2.53;;;;;;;;;;5071037;28;20542;-77
2022/01/20 13:36:56;;;;;;;15.70;2.92;;;;;;;;;;5063647;28;20135;-77
2022/01/20 13:39:29;;;;;;;12.57;1.73;;;;;;;;;;5071826;28;20442;-77
2022/01/20 13:42:06;;;;;;;8.90;2.10;;;;;;;;;;5061494;28;20056;-77
2022/01/20 13:47:16;;;;;;;7.50;1.88;;;;;;;;;;5056937;28;20052;-77
2022/01/20 13:49:53;;;;;;;15.32;2.13;;;;;;;;;;5060836;28;20456;-77
2022/01/20 13:52:20;;;;;;;11.82;2.28;;;;;;;;;;5065784;28;20051;-77
2022/01/20 13:54:48;;;;;;;9.30;1.63;;;;;;;;;;5070157;28;20037;-77
2022/01/20 13:57:14;;;;;;;9.82;1.80;;;;;;;;;;5066762;28;20052;-77
2022/01/20 13:59:56;;;;;;;9.63;1.77;;;;;;;;;;5092034;28;20028;-77
2022/01/20 14:02:23;;;;;;;7.70;1.50;;;;;;;;;;5085221;28;20040;-77
2022/01/20 14:04:50;;;;;;;13.30;2.13;;;;;;;;;;5067990;28;20504;-77
2022/01/20 14:07:16;;;;;;;6.38;1.65;;;;;;;;;;5059502;28;20487;-78
2022/01/20 14:09:42;;;;;;;6.95;1.80;;;;;;;;;;5051568;28;20033;-77
2022/01/20 14:12:08;;;;;;;7.20;1.65;;;;;;;;;;5055233;28;20032;-76
2022/01/20 14:14:34;;;;;;;7.95;1.20;;;;;;;;;;5070935;28;20040;-77
2022/01/20 14:17:07;;;;;;;7.45;1.70;;;;;;;;;;5067743;28;20045;-77
2022/01/20 14:19:42;;;;;;;6.80;1.50;;;;;;;;;;5062259;28;20044;-77
2022/01/20 14:22:08;;;;;;;11.48;1.92;;;;;;;;;;5074165;28;20032;-76
2022/01/20 14:24:34;;;;;;;7.93;1.50;;;;;;;;;;5074563;28;20033;-76
2022/01/20 14:27:09;;;;;;;10.40;1.70;;;;;;;;;;5064135;28;20438;-77
2022/01/20 14:29:36;;;;;;;8.43;1.77;;;;;;;;;;5055677;28;20037;-77
2022/01/20 14:32:02;;;;;;;9.32;1.88;;;;;;;;;;5071264;28;20032;-77
2022/01/20 14:34:28;;;;;;;15.20;2.05;;;;;;;;;;5091023;28;20448;-77
2022/01/20 14:36:54;;;;;;;8.27;2.00;;;;;;;;;;5065354;28;20041;-76
2022/01/20 14:39:20;;;;;;;7.22;1.42;;;;;;;;;;5073703;28;20041;-77
2022/01/20 14:41:45;;;;;;;8.80;1.60;;;;;;;;;;5074790;28;20052;-77
2022/01/20 14:44:11;;;;;;;9.20;1.73;;;;;;;;;;5070056;28;20036;-77
2022/01/20 14:46:37;;;;;;;6.03;1.65;;;;;;;;;;5067417;28;20442;-76
2022/01/20 14:49:03;;;;;;;9.40;2.08;;;;;;;;;;5068471;28;20064;-77
2022/01/20 14:51:29;;;;;;;11.52;1.98;;;;;;;;;;5062119;28;20052;-77
2022/01/20 14:53:55;;;;;;;7.95;1.67;;;;;;;;;;5055118;28;20061;-76
2022/01/20 14:56:22;;;;;;;4.80;1.10;;;;;;;;;;5065740;28;20033;-77
2022/01/20 14:58:48;;;;;;;6.10;1.45;;;;;;;;;;5070019;28;20051;-76
2022/01/20 15:01:14;;;;;;;8.05;1.17;;;;;;;;;;5074792;28;20544;-77
2022/01/20 15:03:41;;;;;;;8.73;1.67;;;;;;;;;;5074801;28;20570;-77
2022/01/20 15:06:07;;;;;;;8.00;1.60;;;;;;;;;;5066509;28;20040;-77
2022/01/20 15:08:33;;;;;;;10.93;1.50;;;;;;;;;;5071244;28;20082;-76
2022/01/20 15:10:59;;;;;;;8.60;1.75;;;;;;;;;;5073829;28;20044;-77
2022/01/20 15:13:25;;;;;;;8.40;2.22;;;;;;;;;;5056045;28;20040;-77
2022/01/20 15:15:51;;;;;;;8.13;1.55;;;;;;;;;;5061389;28;20045;-77
2022/01/20 15:18:17;;;;;;;8.15;2.00;;;;;;;;;;5070609;28;20033;-77
2022/01/20 15:20:43;;;;;;;8.30;1.90;;;;;;;;;;5074422;28;20185;-77
2022/01/20 15:23:09;;;;;;;7.07;1.90;;;;;;;;;;5070516;28;20040;-78
2022/01/20 15:25:35;;;;;;;9.85;1.60;;;;;;;;;;5068479;28;20048;-79
2022/01/20 15:28:02;;;;;;;5.68;1.80;;;;;;;;;;5070426;28;20040;-81
2022/01/20 15:30:28;;;;;;;7.63;1.58;;;;;;;;;;5068676;28;20162;-77
2022/01/20 15:32:54;;;;;;;7.13;1.48;;;;;;;;;;5071487;28;20044;-74
2022/01/20 15:35:20;;;;;;;11.80;1.90;;;;;;;;;;5066219;28;20043;-76
2022/01/20 15:37:46;;;;;;;7.55;2.45;;;;;;;;;;5068919;28;20028;-75
2022/01/20 15:40:14;;;;;;;10.50;1.70;;;;;;;;;;5070453;28;20032;-74
2022/01/20 15:42:40;;;;;;;12.20;3.15;;;;;;;;;;5068978;28;20041;-74